Milton, North Dakota
Current Conditions -  °F | °C
As of 3:35 PM on Monday 24 Nov 2014 (Local Time) from KD55 Reporting Station
Clear Clear  
Wind Chill:   Ceiling: Unl
Heat Index: 14°   Visibility: 10mi
Dew Point:   Wind: 12mph
Humidity: 67%   Direction: 310°NW
Pressure: 29.88"   Gusts: NA
Location:  48.63°N, 98.04°W
Report Text: KD55 242135Z AUTO 31010KT 10SM CLR M10/M15 A2988 RMK AO2
Loading
Personal Weather Stations






























Interactive Weather Map New forecast layout! Learn more

10-Day Weather Forecast

Advertisements
Track Severe Weather on mobile